Time;durP1;ratioP1;P1;durP2;ratioP2;P2;SDS_P1;SDS_P2;PMS_P1;PMS_P2;Temp;Humidity;BMP_temperature;BMP_pressure;BME280_temperature;BME280_humidity;BME280_pressure;Samples;Min_cycle;Max_cycle;Signal;HPM_P1;HPM_P2
2021/12/07 00:02:07;;;;;;;29.02;11.98;;;;;;;1.03;94.96;100476.63;5041849;28;20024;-72
2021/12/07 00:04:34;;;;;;;30.92;12.73;;;;;;;1.06;95.27;100484.50;5042863;28;20025;-72
2021/12/07 00:07:00;;;;;;;31.15;12.82;;;;;;;1.06;95.18;100487.06;5042752;28;20063;-72
2021/12/07 00:09:25;;;;;;;33.65;14.57;;;;;;;1.07;94.97;100481.09;5033955;28;20037;-72
2021/12/07 00:11:51;;;;;;;33.67;14.07;;;;;;;1.09;94.73;100494.91;5030297;28;20021;-72
2021/12/07 00:14:23;;;;;;;38.95;14.48;;;;;;;1.09;95.50;100487.22;5032895;28;20169;-72
2021/12/07 00:16:51;;;;;;;33.42;13.82;;;;;;;1.11;94.97;100488.19;5032970;28;20026;-72
2021/12/07 00:19:16;;;;;;;36.80;14.70;;;;;;;1.09;95.47;100492.34;5029996;28;20024;-72
2021/12/07 00:21:43;;;;;;;35.17;14.10;;;;;;;1.10;95.48;100499.25;5034378;28;20191;-72
2021/12/07 00:24:10;;;;;;;43.20;15.10;;;;;;;1.10;95.65;100499.25;5039094;28;20311;-72
2021/12/07 00:26:37;;;;;;;36.35;15.52;;;;;;;1.13;95.25;100502.00;5037093;28;20056;-72
2021/12/07 00:29:04;;;;;;;36.15;14.77;;;;;;;1.13;95.41;100502.00;5037252;28;20029;-72
2021/12/07 00:31:39;;;;;;;37.78;15.60;;;;;;;1.14;95.63;100511.44;5039365;28;20026;-72
2021/12/07 00:36:34;;;;;;;45.70;17.42;;;;;;;1.16;95.47;100504.72;5034750;28;20061;-72
2021/12/07 00:38:59;;;;;;;43.65;16.15;;;;;;;1.17;96.30;100505.59;5034926;28;20064;-72
2021/12/07 00:41:24;;;;;;;46.60;17.33;;;;;;;1.18;95.80;100523.66;5034639;28;20169;-72
2021/12/07 00:43:50;;;;;;;44.42;17.38;;;;;;;1.20;96.46;100516.03;5032557;28;20042;-72
2021/12/07 00:46:16;;;;;;;46.28;18.17;;;;;;;1.22;96.28;100517.03;5026640;28;20241;-72
2021/12/07 00:48:41;;;;;;;47.38;18.08;;;;;;;1.25;96.04;100532.59;5030084;28;20112;-72
2021/12/07 00:51:07;;;;;;;47.05;18.00;;;;;;;1.27;96.76;100538.69;5030526;28;20087;-72
2021/12/07 00:53:32;;;;;;;46.88;17.63;;;;;;;1.31;96.79;100534.63;5031461;28;20045;-72
2021/12/07 00:56:01;;;;;;;49.10;17.88;;;;;;;1.33;96.76;100540.69;5034753;28;20029;-72
2021/12/07 00:58:28;;;;;;;54.33;18.75;;;;;;;1.36;97.25;100546.00;5036312;28;20017;-72
2021/12/07 01:01:00;;;;;;;48.75;18.67;;;;;;;1.40;97.18;100547.94;5037309;28;20021;-72
2021/12/07 01:03:27;;;;;;;52.30;19.15;;;;;;;1.45;97.66;100550.75;5031680;28;20089;-72
2021/12/07 01:06:02;;;;;;;50.95;19.70;;;;;;;1.49;97.48;100557.84;5028978;28;20041;-72
2021/12/07 01:08:55;;;;;;;53.38;19.45;;;;;;;1.54;97.20;100565.00;5028813;28;20040;-72
2021/12/07 01:25:09;;;;;;;52.63;18.70;;;;;;;1.90;98.00;100590.94;5038528;28;20035;-72
2021/12/07 01:27:35;;;;;;;55.15;18.08;;;;;;;1.96;98.74;100594.66;5029451;28;20037;-72
2021/12/07 01:30:08;;;;;;;51.22;18.30;;;;;;;1.98;98.03;100606.75;5031991;28;20132;-72
2021/12/07 01:32:49;;;;;;;54.42;18.17;;;;;;;2.02;98.65;100615.53;5028468;28;20097;-72
2021/12/07 01:40:41;;;;;;;48.63;17.33;;;;;;;2.09;97.96;100613.38;5032287;28;20037;-72
2021/12/07 01:45:59;;;;;;;49.45;17.50;;;;;;;2.13;97.92;100614.44;5035077;28;20192;-72
2021/12/07 02:01:46;;;;;;;39.38;14.63;;;;;;;2.24;97.60;100645.84;5034574;28;20079;-72
2021/12/07 02:04:11;;;;;;;48.33;14.60;;;;;;;2.27;97.99;100643.44;5032085;28;20029;-72
2021/12/07 02:06:37;;;;;;;46.17;14.32;;;;;;;2.30;97.88;100645.28;5054372;28;20112;-72
2021/12/07 02:09:05;;;;;;;41.08;12.77;;;;;;;2.32;97.71;100654.84;5029926;28;20033;-72
2021/12/07 02:11:31;;;;;;;39.27;12.27;;;;;;;2.34;97.64;100665.22;5034547;28;20093;-73
2021/12/07 02:16:25;;;;;;;36.90;12.75;;;;;;;2.38;97.65;100668.03;5031408;28;20272;-72
2021/12/07 02:18:51;;;;;;;34.25;10.70;;;;;;;2.41;97.98;100662.19;5031165;28;20033;-72
2021/12/07 02:21:17;;;;;;;32.75;9.70;;;;;;;2.43;97.64;100665.69;5030992;28;20037;-72
2021/12/07 02:23:42;;;;;;;32.78;9.02;;;;;;;2.48;98.08;100676.22;5037406;28;20030;-72
2021/12/07 02:26:08;;;;;;;30.90;8.98;;;;;;;2.48;97.20;100674.56;5066991;28;20048;-72
2021/12/07 02:28:38;;;;;;;32.85;9.02;;;;;;;2.52;97.68;100680.75;5057203;28;20029;-72
2021/12/07 02:31:04;;;;;;;35.05;8.77;;;;;;;2.56;97.59;100691.28;5032732;28;20053;-72
2021/12/07 02:33:31;;;;;;;30.20;7.80;;;;;;;2.58;97.30;100684.53;5038433;28;20145;-72
2021/12/07 02:35:56;;;;;;;25.13;8.07;;;;;;;2.63;96.94;100689.03;5036125;28;20355;-72
2021/12/07 02:38:21;;;;;;;22.30;7.10;;;;;;;2.64;97.20;100685.69;5039479;28;20029;-72
2021/12/07 02:40:48;;;;;;;22.50;6.50;;;;;;;2.66;96.85;100694.34;5029311;28;20141;-72
2021/12/07 02:43:13;;;;;;;20.63;7.00;;;;;;;2.68;96.49;100700.44;5033805;28;20052;-72
2021/12/07 02:45:39;;;;;;;31.60;6.50;;;;;;;2.68;96.42;100703.91;5038840;28;20025;-72
2021/12/07 02:48:04;;;;;;;24.05;5.97;;;;;;;2.71;96.49;100703.16;5031493;28;20030;-72
2021/12/07 02:50:30;;;;;;;24.23;6.80;;;;;;;2.72;96.06;100711.00;5035319;28;20100;-72
2021/12/07 02:52:55;;;;;;;25.60;6.45;;;;;;;2.74;95.98;100721.38;5038427;28;20063;-72
2021/12/07 02:55:21;;;;;;;26.77;6.25;;;;;;;2.74;96.10;100721.38;5032858;28;20065;-72
2021/12/07 02:57:47;;;;;;;24.08;5.75;;;;;;;2.73;96.01;100729.88;5036961;28;20079;-72
2021/12/07 03:00:19;;;;;;;23.75;5.45;;;;;;;2.73;96.15;100729.88;5028868;28;20273;-72
2021/12/07 03:03:03;;;;;;;17.65;5.40;;;;;;;2.71;95.78;100734.03;5031659;28;20037;-72
2021/12/07 03:08:50;;;;;;;25.23;4.95;;;;;;;2.71;96.04;100745.25;5028933;28;20212;-72
2021/12/07 03:27:34;;;;;;;19.88;4.55;;;;;;;2.63;95.41;100751.66;5034212;28;20184;-72
2021/12/07 03:30:00;;;;;;;22.67;5.45;;;;;;;2.61;95.72;100759.28;5033130;28;20045;-72
2021/12/07 03:32:25;;;;;;;23.80;5.15;;;;;;;2.60;95.70;100760.06;5035506;28;20025;-72
2021/12/07 03:34:50;;;;;;;19.63;4.65;;;;;;;2.59;95.33;100760.91;5041673;28;20326;-72
2021/12/07 03:37:16;;;;;;;21.60;5.13;;;;;;;2.57;95.28;100767.63;5032871;28;20271;-72
2021/12/07 03:39:41;;;;;;;19.30;5.03;;;;;;;2.57;95.31;100774.47;5061462;28;20795;-72
2021/12/07 03:42:06;;;;;;;18.38;4.72;;;;;;;2.56;95.58;100775.28;5030645;28;20041;-72
2021/12/07 03:44:33;;;;;;;25.27;6.03;;;;;;;2.56;95.55;100782.97;5036160;28;20164;-72
2021/12/07 03:46:58;;;;;;;16.63;4.93;;;;;;;2.54;95.29;100788.03;5072572;28;20299;-72
2021/12/07 03:49:23;;;;;;;18.85;4.90;;;;;;;2.53;95.65;100791.41;5028783;28;20037;-72
2021/12/07 03:51:49;;;;;;;20.52;4.63;;;;;;;2.53;95.75;100806.84;5032344;28;20065;-72
2021/12/07 03:54:14;;;;;;;18.88;5.07;;;;;;;2.51;95.41;100799.88;5031086;28;20093;-72
2021/12/07 03:56:39;;;;;;;15.27;4.30;;;;;;;2.51;95.49;100797.28;5031904;28;20109;-72
2021/12/07 03:59:05;;;;;;;20.50;4.55;;;;;;;2.51;95.76;100797.28;5032536;28;20022;-72
2021/12/07 04:01:31;;;;;;;25.35;4.97;;;;;;;2.51;95.57;100803.31;5035301;28;20294;-72
2021/12/07 04:04:01;;;;;;;19.85;4.65;;;;;;;2.50;95.60;100798.97;5031486;28;20121;-72
2021/12/07 04:06:26;;;;;;;23.27;5.35;;;;;;;2.50;95.48;100796.38;5038001;28;20018;-72
2021/12/07 04:08:52;;;;;;;27.15;5.85;;;;;;;2.49;95.35;100793.72;5034036;28;20104;-72
2021/12/07 04:11:17;;;;;;;20.13;4.97;;;;;;;2.49;95.26;100797.22;5028435;28;20201;-72
2021/12/07 04:13:44;;;;;;;21.10;5.28;;;;;;;2.49;95.18;100804.94;5034046;28;20038;-72
2021/12/07 04:16:11;;;;;;;21.70;4.97;;;;;;;2.48;95.64;100815.09;5031782;28;20045;-72
2021/12/07 04:18:37;;;;;;;23.80;4.60;;;;;;;2.47;94.97;100821.94;5068131;28;20042;-72
2021/12/07 04:21:04;;;;;;;20.23;4.40;;;;;;;2.44;95.14;100814.94;5027468;28;20022;-72
2021/12/07 04:23:31;;;;;;;21.67;4.93;;;;;;;2.44;95.56;100804.66;5029304;28;20034;-72
2021/12/07 04:25:57;;;;;;;17.98;4.60;;;;;;;2.42;94.94;100815.66;5038722;28;20028;-72
2021/12/07 04:28:22;;;;;;;25.27;4.85;;;;;;;2.41;95.03;100812.19;5034887;28;20037;-72
2021/12/07 04:30:48;;;;;;;22.45;5.65;;;;;;;2.39;94.97;100818.03;5030072;28;20288;-72
2021/12/07 04:33:14;;;;;;;24.08;5.25;;;;;;;2.38;95.46;100816.28;5030806;28;20332;-72
2021/12/07 04:35:44;;;;;;;16.45;4.40;;;;;;;2.38;95.10;100824.00;5029594;28;20030;-72
2021/12/07 04:38:10;;;;;;;17.33;4.63;;;;;;;2.36;94.88;100823.94;5032484;28;20029;-72
2021/12/07 04:40:36;;;;;;;23.63;4.53;;;;;;;2.37;95.33;100814.50;5032656;28;20039;-72
2021/12/07 04:43:02;;;;;;;20.13;4.15;;;;;;;2.36;95.41;100829.06;5030559;28;20042;-72
2021/12/07 04:57:35;;;;;;;19.33;4.32;;;;;;;2.37;95.50;100830.81;5034087;28;20042;-72
2021/12/07 04:57:37;;;;;;;19.48;4.15;;;;;;;2.37;95.12;100829.94;5035694;28;20056;-72
2021/12/07 04:59:06;;;;;;;19.77;3.72;;;;;;;2.40;94.97;100850.69;5027938;28;20079;-72
2021/12/07 05:01:33;;;;;;;23.70;3.70;;;;;;;2.41;95.22;100829.31;5036666;28;20050;-72
2021/12/07 05:04:03;;;;;;;21.65;4.57;;;;;;;2.43;95.18;100848.28;5037115;28;20017;-72
2021/12/07 05:06:31;;;;;;;18.58;3.45;;;;;;;2.42;95.33;100855.13;5034804;28;20072;-72
2021/12/07 05:09:04;;;;;;;22.98;4.57;;;;;;;2.43;95.46;100854.31;5030930;28;20029;-72
2021/12/07 05:11:47;;;;;;;19.63;3.85;;;;;;;2.43;95.42;100861.13;5059955;28;20291;-72
2021/12/07 05:24:51;;;;;;;20.30;4.00;;;;;;;2.37;94.71;100871.97;5031041;28;20024;-72
2021/12/07 05:38:13;;;;;;;18.30;4.05;;;;;;;2.19;94.55;100897.50;5028723;28;20289;-72
2021/12/07 05:40:38;;;;;;;21.95;4.45;;;;;;;2.15;94.36;100902.38;5032041;28;20094;-72
2021/12/07 05:43:04;;;;;;;16.15;4.88;;;;;;;2.11;94.82;100906.44;5033561;28;20025;-72
2021/12/07 05:45:34;;;;;;;18.27;3.90;;;;;;;2.06;94.76;100921.59;5033725;28;20264;-71
2021/12/07 05:48:01;;;;;;;19.73;4.57;;;;;;;2.04;94.86;100932.59;5067027;28;20176;-72
2021/12/07 05:50:29;;;;;;;22.00;6.15;;;;;;;2.03;94.87;100935.97;5030984;28;20029;-71
2021/12/07 05:52:57;;;;;;;23.30;6.82;;;;;;;2.00;94.99;100935.75;5027317;28;20063;-71
2021/12/07 05:55:22;;;;;;;26.55;7.57;;;;;;;1.99;94.77;100934.00;5041539;28;20041;-71
2021/12/07 05:57:48;;;;;;;21.27;7.10;;;;;;;1.97;94.76;100944.19;5034767;28;20025;-71
2021/12/07 06:00:23;;;;;;;25.52;7.95;;;;;;;1.92;94.07;100943.03;5033223;28;20025;-71
2021/12/07 06:02:49;;;;;;;24.35;8.57;;;;;;;1.89;94.68;100953.13;5031774;28;20017;-72
2021/12/07 06:05:14;;;;;;;22.70;8.40;;;;;;;1.88;94.70;100957.38;5055863;28;20030;-72
2021/12/07 06:07:40;;;;;;;26.50;8.50;;;;;;;1.84;94.75;100950.28;5036254;28;20104;-72
2021/12/07 06:10:05;;;;;;;24.40;8.48;;;;;;;1.82;95.10;100944.13;5039825;28;20045;-71
2021/12/07 06:12:31;;;;;;;26.95;8.68;;;;;;;1.81;94.48;100950.09;5032173;28;20037;-72
2021/12/07 06:14:57;;;;;;;26.35;9.30;;;;;;;1.80;95.22;100955.16;5032648;28;20018;-72
2021/12/07 06:17:22;;;;;;;28.35;8.77;;;;;;;1.78;94.90;100955.03;5034186;28;20172;-71
2021/12/07 06:19:47;;;;;;;31.73;8.40;;;;;;;1.76;94.88;100942.91;5033338;28;20043;-72
2021/12/07 06:22:13;;;;;;;25.80;8.90;;;;;;;1.77;95.25;100939.50;5034644;28;20036;-71
2021/12/07 06:24:38;;;;;;;28.83;9.27;;;;;;;1.75;94.99;100939.44;5033013;28;20087;-72
2021/12/07 06:27:04;;;;;;;27.27;9.18;;;;;;;1.72;94.87;100939.25;5068259;28;20302;-72
2021/12/07 06:29:29;;;;;;;28.52;9.65;;;;;;;1.70;94.93;100946.88;5035389;28;20146;-72
2021/12/07 06:31:54;;;;;;;29.77;8.95;;;;;;;1.69;94.64;100959.63;5038074;28;20286;-71
2021/12/07 06:34:20;;;;;;;37.80;9.43;;;;;;;1.67;94.88;100963.78;5036553;28;20056;-72
2021/12/07 06:36:46;;;;;;;31.27;9.55;;;;;;;1.65;95.07;100955.06;5062322;28;20025;-72
2021/12/07 06:39:11;;;;;;;33.88;10.15;;;;;;;1.63;94.66;100954.97;5030185;28;20353;-71
2021/12/07 06:41:36;;;;;;;27.05;10.23;;;;;;;1.64;95.59;100955.91;5029461;28;20042;-71
2021/12/07 06:44:02;;;;;;;33.63;9.93;;;;;;;1.62;95.29;100953.19;5036985;28;20125;-72
2021/12/07 06:46:27;;;;;;;31.85;10.07;;;;;;;1.61;94.94;100955.69;5056953;28;20042;-72
2021/12/07 06:48:53;;;;;;;30.58;10.30;;;;;;;1.61;95.30;100955.69;5032836;28;20499;-71
2021/12/07 06:51:18;;;;;;;27.52;9.50;;;;;;;1.61;95.10;100950.53;5037307;28;20029;-72
2021/12/07 06:53:44;;;;;;;29.27;10.77;;;;;;;1.60;95.10;100953.94;5067507;28;20041;-72
2021/12/07 06:56:10;;;;;;;31.40;11.23;;;;;;;1.58;95.16;100955.50;5029855;28;20022;-72
2021/12/07 06:58:36;;;;;;;31.63;10.30;;;;;;;1.55;95.21;100959.66;5032240;28;20033;-71
2021/12/07 07:01:06;;;;;;;33.22;10.48;;;;;;;1.54;95.03;100957.88;5036470;28;20030;-72
2021/12/07 07:03:32;;;;;;;33.55;10.48;;;;;;;1.54;95.48;100968.16;5067335;28;20037;-72
2021/12/07 07:05:58;;;;;;;33.80;11.30;;;;;;;1.53;95.55;100970.63;5033662;28;20038;-71
2021/12/07 07:08:23;;;;;;;33.92;10.70;;;;;;;1.53;95.04;100975.75;5036524;28;20100;-71
2021/12/07 07:10:48;;;;;;;29.20;10.27;;;;;;;1.51;94.98;100978.22;5030241;28;20026;-71
2021/12/07 07:13:14;;;;;;;31.88;10.10;;;;;;;1.50;94.89;100973.00;5033700;28;20064;-71
2021/12/07 07:15:41;;;;;;;37.30;11.25;;;;;;;1.47;95.49;100973.69;5034091;28;20025;-72
2021/12/07 07:18:06;;;;;;;35.08;10.93;;;;;;;1.48;95.71;100974.59;5034729;28;20060;-72
2021/12/07 07:20:31;;;;;;;34.53;11.27;;;;;;;1.46;95.49;100971.91;5030025;28;20022;-71
2021/12/07 07:22:57;;;;;;;31.70;10.35;;;;;;;1.47;95.61;100966.00;5031325;28;20025;-72
2021/12/07 07:25:22;;;;;;;31.17;10.48;;;;;;;1.48;95.93;100972.03;5033085;28;20030;-71
2021/12/07 07:27:48;;;;;;;38.47;12.55;;;;;;;1.48;95.73;100972.03;5031856;28;20049;-71
2021/12/07 07:30:16;;;;;;;34.30;11.45;;;;;;;1.47;95.55;100975.38;5059543;28;20045;-71
2021/12/07 07:32:41;;;;;;;33.03;10.73;;;;;;;1.47;95.52;100989.09;5032808;28;20080;-71
2021/12/07 07:35:08;;;;;;;31.20;11.07;;;;;;;1.47;95.71;100996.81;5036479;28;20025;-71
2021/12/07 07:37:34;;;;;;;28.50;11.48;;;;;;;1.48;95.34;100992.56;5030627;28;20065;-71
2021/12/07 07:40:00;;;;;;;30.90;11.10;;;;;;;1.48;95.61;100992.56;5031527;28;20052;-71
2021/12/07 07:42:25;;;;;;;34.00;10.23;;;;;;;1.49;95.52;100986.63;5060234;28;20049;-71
2021/12/07 07:44:51;;;;;;;29.92;10.43;;;;;;;1.51;95.87;100993.63;5036916;28;20167;-71
2021/12/07 07:47:16;;;;;;;31.05;11.23;;;;;;;1.53;96.13;100988.59;5036999;28;20029;-72
2021/12/07 07:49:41;;;;;;;28.45;10.88;;;;;;;1.56;96.15;100989.69;5036665;28;20139;-71
2021/12/07 07:52:07;;;;;;;36.72;11.70;;;;;;;1.58;95.99;100986.31;5034372;28;20044;-71
2021/12/07 07:54:32;;;;;;;37.45;11.55;;;;;;;1.61;95.56;100986.50;5031356;28;20033;-71
2021/12/07 07:56:58;;;;;;;33.33;11.77;;;;;;;1.63;95.92;100975.53;5029954;28;20269;-71
2021/12/07 07:59:23;;;;;;;49.40;11.02;;;;;;;1.66;95.85;100969.69;5065976;28;20282;-71
2021/12/07 08:01:48;;;;;;;40.53;11.75;;;;;;;1.69;95.84;100969.88;5035020;28;20273;-71
2021/12/07 08:04:14;;;;;;;34.00;11.63;;;;;;;1.71;95.46;100968.31;5031763;28;20032;-71
2021/12/07 08:06:39;;;;;;;35.53;10.90;;;;;;;1.73;95.08;100975.31;5035735;28;20296;-71
2021/12/07 08:09:05;;;;;;;34.95;10.85;;;;;;;1.75;95.48;100980.53;5030726;28;20025;-71
2021/12/07 08:11:33;;;;;;;34.72;10.60;;;;;;;1.77;95.46;100983.19;5038441;28;20041;-71
2021/12/07 08:13:58;;;;;;;32.05;12.13;;;;;;;1.82;95.87;100982.69;5033891;28;20022;-71
2021/12/07 08:16:24;;;;;;;30.55;9.55;;;;;;;1.87;95.31;100981.28;5065775;28;20030;-77
2021/12/07 08:18:52;;;;;;;34.15;10.20;;;;;;;1.92;94.89;100990.16;5058162;28;20018;-76
2021/12/07 08:21:18;;;;;;;34.13;11.02;;;;;;;1.98;94.67;100981.94;5037393;28;20265;-76
2021/12/07 08:23:44;;;;;;;34.55;10.90;;;;;;;2.01;94.69;100994.94;5026602;28;20036;-77
2021/12/07 08:26:12;;;;;;;30.88;9.90;;;;;;;2.05;94.60;100999.50;5036389;28;20083;-76
2021/12/07 08:28:37;;;;;;;26.30;8.32;;;;;;;2.09;94.47;101000.59;5031836;28;20021;-77
2021/12/07 08:31:03;;;;;;;29.15;9.07;;;;;;;2.11;94.20;101009.25;5030133;28;20199;-76
2021/12/07 08:33:29;;;;;;;26.05;8.40;;;;;;;2.11;94.16;101021.22;5028320;28;20041;-75
2021/12/07 08:35:55;;;;;;;27.45;8.45;;;;;;;2.08;94.05;101016.78;5054509;28;20177;-76
2021/12/07 08:38:22;;;;;;;23.83;8.45;;;;;;;2.07;94.06;101005.63;5034777;28;20022;-78
2021/12/07 08:40:53;;;;;;;31.88;8.15;;;;;;;2.06;93.92;101015.81;5042132;28;20045;-75
2021/12/07 08:43:27;;;;;;;29.75;8.60;;;;;;;2.04;93.74;101015.72;5042539;28;20038;-77
2021/12/07 08:45:55;;;;;;;25.65;7.65;;;;;;;2.04;94.12;100999.41;5041244;28;20030;-77
2021/12/07 08:48:21;;;;;;;26.88;7.47;;;;;;;2.05;94.25;101016.59;5042750;28;20025;-72
2021/12/07 08:50:47;;;;;;;28.70;7.90;;;;;;;2.07;94.25;101013.34;5042610;28;20157;-72
2021/12/07 08:53:16;;;;;;;24.38;7.80;;;;;;;2.12;94.04;101008.47;5041237;28;20026;-71
2021/12/07 09:01:13;;;;;;;21.30;6.93;;;;;;;2.26;93.14;100993.88;5040584;28;20036;-71
2021/12/07 09:03:39;;;;;;;24.45;7.75;;;;;;;2.29;93.72;100986.34;5042565;28;20052;-71
2021/12/07 09:06:05;;;;;;;23.35;6.95;;;;;;;2.35;93.61;100980.69;5042180;28;20034;-72
2021/12/07 09:08:31;;;;;;;23.65;7.93;;;;;;;2.39;93.83;100978.38;5042108;28;20268;-71
2021/12/07 09:10:56;;;;;;;24.00;7.88;;;;;;;2.47;93.66;100976.25;5042219;28;20169;-72
2021/12/07 09:13:24;;;;;;;26.88;8.05;;;;;;;2.56;93.11;100978.47;5042336;28;20033;-72
2021/12/07 09:15:51;;;;;;;20.98;7.55;;;;;;;2.63;92.80;100978.03;5036424;28;20093;-72
2021/12/07 09:18:16;;;;;;;24.73;7.28;;;;;;;2.69;92.69;100974.91;5040971;28;20027;-72
2021/12/07 09:20:42;;;;;;;25.15;8.20;;;;;;;2.68;92.76;100971.47;5034259;28;20042;-72
2021/12/07 09:23:07;;;;;;;25.20;8.48;;;;;;;2.69;92.63;100977.50;5041317;28;20026;-71
2021/12/07 09:25:32;;;;;;;21.65;7.55;;;;;;;2.69;92.60;100987.78;5041430;28;20291;-72
2021/12/07 09:27:58;;;;;;;23.08;7.65;;;;;;;2.68;92.68;100986.91;5040461;28;20029;-71
2021/12/07 09:30:24;;;;;;;25.42;7.47;;;;;;;2.66;93.00;100979.88;5030707;28;20025;-72
2021/12/07 09:32:49;;;;;;;27.33;7.80;;;;;;;2.66;92.50;100983.34;5039759;28;20264;-72
2021/12/07 09:35:16;;;;;;;23.20;7.30;;;;;;;2.69;92.61;100977.50;5037277;28;20037;-64
2021/12/07 09:37:42;;;;;;;22.25;7.43;;;;;;;2.68;92.96;100986.91;5046478;28;20037;-64
2021/12/07 09:40:11;;;;;;;24.90;7.30;;;;;;;2.69;92.74;100982.63;5045020;28;20168;-64
2021/12/07 09:42:37;;;;;;;33.38;7.78;;;;;;;2.71;93.06;100975.88;5045435;28;20045;-64
2021/12/07 09:45:05;;;;;;;22.65;7.85;;;;;;;2.73;93.14;100976.88;5045978;28;20036;-64
2021/12/07 09:47:30;;;;;;;24.77;7.55;;;;;;;2.72;92.96;100976.00;5039731;28;20033;-64
2021/12/07 09:49:55;;;;;;;23.35;7.55;;;;;;;2.75;92.69;100977.84;5045975;28;20035;-64
2021/12/07 09:52:21;;;;;;;32.95;7.70;;;;;;;2.76;93.01;100982.19;5046047;28;20085;-64
2021/12/07 09:54:46;;;;;;;22.95;7.22;;;;;;;2.78;92.98;100986.63;5045927;28;20030;-64
2021/12/07 09:57:12;;;;;;;22.63;6.95;;;;;;;2.81;92.91;100991.06;5045879;28;20036;-64
2021/12/07 09:59:38;;;;;;;22.05;6.80;;;;;;;2.83;93.30;100983.44;5045712;28;20402;-64
2021/12/07 10:02:06;;;;;;;25.20;7.32;;;;;;;2.83;92.86;100978.28;5045104;28;20025;-64
2021/12/07 10:04:32;;;;;;;21.53;7.23;;;;;;;2.85;93.25;100972.41;5045964;28;20040;-64
2021/12/07 10:06:58;;;;;;;26.45;7.20;;;;;;;2.87;93.33;100969.91;5045765;28;20420;-64
2021/12/07 10:09:23;;;;;;;24.70;6.80;;;;;;;2.88;93.06;100970.03;5045605;28;20049;-65
2021/12/07 10:11:53;;;;;;;19.38;6.20;;;;;;;2.90;92.69;100976.13;5045718;28;20263;-64
2021/12/07 10:14:19;;;;;;;24.33;7.03;;;;;;;2.92;92.67;100977.09;5045784;28;20056;-65
2021/12/07 10:16:48;;;;;;;20.83;6.20;;;;;;;2.94;92.86;100965.22;5043705;28;20068;-66
2021/12/07 10:19:30;;;;;;;26.87;7.30;;;;;;;2.99;92.57;100962.91;5045721;28;20021;-66
2021/12/07 10:22:06;;;;;;;22.05;6.78;;;;;;;3.02;92.82;100949.31;5045703;28;20176;-66
2021/12/07 10:24:38;;;;;;;25.70;7.03;;;;;;;3.03;92.92;100956.25;5045576;28;20164;-66
2021/12/07 10:27:05;;;;;;;19.15;6.60;;;;;;;3.07;92.55;100950.44;5045536;28;20036;-66
2021/12/07 10:29:30;;;;;;;24.42;6.47;;;;;;;3.09;92.27;100946.28;5045319;28;20081;-66
2021/12/07 10:32:02;;;;;;;23.63;6.05;;;;;;;3.11;92.47;100944.66;5044657;28;20300;-66
2021/12/07 10:34:33;;;;;;;25.20;6.55;;;;;;;3.14;92.77;100947.41;5045066;28;20251;-66
2021/12/07 10:37:13;;;;;;;21.55;6.97;;;;;;;3.18;92.46;100949.34;5045438;28;20021;-66
2021/12/07 10:39:42;;;;;;;29.00;7.22;;;;;;;3.22;92.35;100940.13;5045251;28;20025;-66
2021/12/07 10:42:11;;;;;;;20.55;6.68;;;;;;;3.24;92.03;100928.22;5045268;28;20052;-66
2021/12/07 10:44:39;;;;;;;26.65;6.55;;;;;;;3.24;91.78;100923.94;5045127;28;20185;-65
2021/12/07 10:47:15;;;;;;;24.35;7.47;;;;;;;3.28;91.93;100907.84;5044330;28;20192;-66
2021/12/07 10:49:46;;;;;;;21.40;7.43;;;;;;;3.31;92.43;100915.75;5044984;28;20014;-66
2021/12/07 10:52:28;;;;;;;25.40;7.60;;;;;;;3.34;92.19;100907.31;5045030;28;20041;-66
2021/12/07 10:54:56;;;;;;;26.85;6.97;;;;;;;3.39;91.94;100907.53;5044516;28;20029;-66
2021/12/07 10:57:38;;;;;;;25.75;7.82;;;;;;;3.40;91.91;100894.75;5044780;28;20025;-64
2021/12/07 11:00:20;;;;;;;24.48;7.50;;;;;;;3.46;92.47;100899.34;5044926;28;20175;-64
2021/12/07 11:03:07;;;;;;;26.30;7.57;;;;;;;3.52;92.15;100893.63;5045025;28;20018;-65
2021/12/07 11:05:36;;;;;;;21.77;6.88;;;;;;;3.53;91.77;100891.13;5044436;28;20017;-64
2021/12/07 11:08:05;;;;;;;21.45;7.43;;;;;;;3.56;91.48;100870.69;5031770;28;20033;-65
2021/12/07 11:10:33;;;;;;;22.15;6.95;;;;;;;3.59;91.47;100857.06;5043993;28;20040;-64
2021/12/07 11:13:17;;;;;;;28.67;7.22;;;;;;;3.61;91.23;100864.09;5044646;28;20025;-64
2021/12/07 11:15:55;;;;;;;24.98;7.40;;;;;;;3.64;90.87;100859.09;5044629;28;20025;-65
2021/12/07 11:18:30;;;;;;;27.95;8.07;;;;;;;3.68;90.75;100859.25;5044434;28;20086;-64
2021/12/07 11:21:00;;;;;;;23.52;7.50;;;;;;;3.72;89.71;100858.59;5044757;28;20033;-64
2021/12/07 11:23:30;;;;;;;30.42;7.55;;;;;;;3.71;89.90;100849.09;5043902;28;20026;-64
2021/12/07 11:31:39;;;;;;;23.65;7.88;;;;;;;3.79;90.77;100840.94;5044424;28;20273;-64
2021/12/07 11:34:14;;;;;;;22.98;7.57;;;;;;;3.84;89.31;100836.03;5044309;28;20052;-64
2021/12/07 11:36:51;;;;;;;28.73;8.25;;;;;;;3.87;88.75;100840.44;5044265;28;20140;-64
2021/12/07 11:39:19;;;;;;;24.02;8.30;;;;;;;3.87;88.67;100840.44;5043420;28;20034;-64
2021/12/07 11:41:47;;;;;;;24.88;8.65;;;;;;;3.89;89.02;100832.00;5043984;28;20171;-64
2021/12/07 11:44:12;;;;;;;25.75;8.52;;;;;;;3.93;89.59;100844.22;5043898;28;20029;-64
2021/12/07 11:46:47;;;;;;;28.52;8.63;;;;;;;3.95;89.12;100840.06;5044118;28;20140;-65
2021/12/07 11:49:16;;;;;;;28.27;8.25;;;;;;;3.99;88.12;100834.22;5043842;28;20247;-64
2021/12/07 11:51:44;;;;;;;21.88;7.85;;;;;;;4.01;87.60;100836.88;5043332;28;20029;-64
2021/12/07 11:54:10;;;;;;;25.00;7.60;;;;;;;4.03;87.90;100831.78;5043129;28;20040;-64
2021/12/07 11:56:36;;;;;;;18.40;5.82;;;;;;;4.04;87.24;100824.16;5039188;28;20045;-74
2021/12/07 11:59:03;;;;;;;25.52;6.40;;;;;;;4.06;86.86;100817.38;5042443;28;20124;-74
2021/12/07 12:01:29;;;;;;;17.80;5.93;;;;;;;4.07;87.67;100813.09;5034555;28;20098;-74
2021/12/07 12:03:54;;;;;;;26.90;7.07;;;;;;;4.08;86.87;100808.00;5039792;28;20045;-74
2021/12/07 12:06:19;;;;;;;19.85;6.55;;;;;;;4.12;87.10;100811.63;5042002;28;20278;-74
2021/12/07 12:08:45;;;;;;;22.25;6.07;;;;;;;4.15;86.40;100801.47;5040176;28;20032;-74
2021/12/07 12:11:34;;;;;;;18.70;5.63;;;;;;;4.15;86.44;100793.72;5034156;28;20025;-74
2021/12/07 12:14:14;;;;;;;25.38;6.32;;;;;;;4.16;86.56;100791.22;5032783;28;20089;-74
2021/12/07 12:16:57;;;;;;;24.35;6.97;;;;;;;4.21;86.54;100791.44;5041223;28;20060;-74
2021/12/07 12:19:42;;;;;;;19.02;5.97;;;;;;;4.23;86.08;100789.84;5033892;28;20022;-74
2021/12/07 12:22:26;;;;;;;20.98;5.55;;;;;;;4.25;86.11;100780.47;5042309;28;20030;-74
2021/12/07 12:24:55;;;;;;;22.50;6.28;;;;;;;4.28;86.17;100767.72;5033087;28;20033;-74
2021/12/07 12:27:33;;;;;;;18.65;5.35;;;;;;;4.32;85.41;100767.06;5042562;28;20025;-74
2021/12/07 12:30:18;;;;;;;20.13;5.07;;;;;;;4.35;85.63;100759.47;5037828;28;20050;-74
2021/12/07 12:32:47;;;;;;;21.08;5.25;;;;;;;4.39;85.72;100751.84;5035534;28;20284;-74
2021/12/07 12:35:13;;;;;;;18.45;4.93;;;;;;;4.41;85.84;100752.84;5053979;28;20283;-74
2021/12/07 12:37:44;;;;;;;21.77;5.00;;;;;;;4.43;85.07;100740.88;5037524;28;20060;-74
2021/12/07 12:40:18;;;;;;;16.35;5.10;;;;;;;4.44;85.83;100748.69;5030660;28;20100;-74
2021/12/07 12:42:46;;;;;;;18.05;4.65;;;;;;;4.47;85.58;100743.66;5027131;28;20064;-74
2021/12/07 12:45:22;;;;;;;14.80;4.35;;;;;;;4.50;84.92;100745.50;5030444;28;20029;-73
2021/12/07 12:48:07;;;;;;;15.32;4.78;;;;;;;4.51;85.77;100730.09;5035399;28;20017;-73
2021/12/07 12:50:46;;;;;;;19.38;3.90;;;;;;;4.53;85.88;100717.25;5032792;28;20028;-74
2021/12/07 12:53:16;;;;;;;18.30;4.35;;;;;;;4.54;84.92;100703.56;5033998;28;20022;-74
2021/12/07 12:55:43;;;;;;;14.25;4.13;;;;;;;4.58;84.83;100691.69;5038207;28;20095;-74
2021/12/07 12:58:20;;;;;;;27.77;4.72;;;;;;;4.57;85.14;100687.34;5060962;28;20026;-74
2021/12/07 13:01:10;;;;;;;19.05;3.90;;;;;;;4.60;84.82;100677.16;5026572;28;20108;-74
2021/12/07 13:04:00;;;;;;;20.08;4.85;;;;;;;4.59;84.67;100672.81;5030609;28;20032;-74
2021/12/07 13:06:32;;;;;;;14.25;3.60;;;;;;;4.60;84.18;100659.09;5032633;28;20280;-74
2021/12/07 13:09:19;;;;;;;19.30;3.67;;;;;;;4.60;84.61;100647.06;5027812;28;20402;-74